createdAt,value
2023-04-27T00:01:39.403Z,3.36
2023-04-27T00:04:07.681Z,3.37
2023-04-27T00:06:34.630Z,3.36
2023-04-27T00:09:01.451Z,3.32
2023-04-27T00:11:28.257Z,3.25
2023-04-27T00:13:55.042Z,2.77
2023-04-27T00:16:21.882Z,2.97
2023-04-27T00:18:49.011Z,3.05
2023-04-27T00:21:15.745Z,3.15
2023-04-27T00:23:42.394Z,2.98
2023-04-27T00:26:09.087Z,3.14
2023-04-27T00:28:36.196Z,3.12
2023-04-27T00:31:04.213Z,3.14
2023-04-27T00:33:31.855Z,3.14
2023-04-27T00:36:02.074Z,3.21
2023-04-27T00:38:29.469Z,3.25
2023-04-27T00:41:07.445Z,3.11
2023-04-27T00:43:42.208Z,3.16
2023-04-27T00:46:10.083Z,3.23
2023-04-27T00:48:37.830Z,3.16
2023-04-27T00:51:06.129Z,3.26
2023-04-27T00:53:34.437Z,3.11
2023-04-27T00:56:01.249Z,3.14
2023-04-27T00:58:29.041Z,2.98
2023-04-27T01:00:56.459Z,2.90
2023-04-27T01:03:24.148Z,2.70
2023-04-27T01:05:51.154Z,2.47
2023-04-27T01:08:18.065Z,2.28
2023-04-27T01:10:45.041Z,2.68
2023-04-27T01:13:12.438Z,2.75
2023-04-27T01:15:39.210Z,2.53
2023-04-27T01:18:09.876Z,2.38
2023-04-27T01:20:36.676Z,2.31
2023-04-27T01:23:04.754Z,2.63
2023-04-27T01:25:31.847Z,2.78
2023-04-27T01:28:02.225Z,2.72
2023-04-27T01:30:30.466Z,2.78
2023-04-27T01:32:59.029Z,2.70
2023-04-27T01:35:28.093Z,2.62
2023-04-27T01:37:59.961Z,2.66
2023-04-27T01:40:26.816Z,2.33
2023-04-27T01:42:53.604Z,2.51
2023-04-27T01:45:20.340Z,2.47
2023-04-27T01:47:47.126Z,2.06
2023-04-27T01:50:13.828Z,1.95
2023-04-27T01:52:40.774Z,2.17
2023-04-27T01:55:08.087Z,1.82
2023-04-27T01:57:34.910Z,1.88
2023-04-27T02:00:01.750Z,1.56
2023-04-27T02:02:47.469Z,1.83
2023-04-27T02:05:14.396Z,1.79
2023-04-27T02:07:41.111Z,2.03
2023-04-27T02:10:08.351Z,2.04
2023-04-27T02:12:35.012Z,2.12
2023-04-27T02:15:03.732Z,2.21
2023-04-27T02:17:31.333Z,2.20
2023-04-27T02:19:58.109Z,2.22
2023-04-27T02:22:24.780Z,2.33
2023-04-27T02:24:51.920Z,2.38
2023-04-27T02:27:18.748Z,2.46
2023-04-27T02:29:46.018Z,2.51
2023-04-27T02:32:13.222Z,2.59
2023-04-27T02:34:40.184Z,2.63
2023-04-27T02:37:07.036Z,2.67
2023-04-27T02:39:33.804Z,2.60
2023-04-27T02:42:00.500Z,2.57
2023-04-27T02:44:27.467Z,2.56
2023-04-27T02:46:54.587Z,2.65
2023-04-27T02:49:22.229Z,2.64
2023-04-27T02:51:49.912Z,2.61
2023-04-27T02:54:16.665Z,2.55
2023-04-27T02:56:43.427Z,2.51
2023-04-27T02:59:12.012Z,2.48
2023-04-27T03:01:39.153Z,2.49
2023-04-27T03:04:06.156Z,2.50
2023-04-27T03:06:33.069Z,2.44
2023-04-27T03:08:59.712Z,2.58
2023-04-27T03:11:28.074Z,2.47
2023-04-27T03:13:54.776Z,2.46
2023-04-27T03:16:21.629Z,2.51
2023-04-27T03:18:48.433Z,2.50
2023-04-27T03:21:16.961Z,2.38
2023-04-27T03:23:43.724Z,2.57
2023-04-27T03:26:12.378Z,2.61
2023-04-27T03:28:41.955Z,2.53
2023-04-27T03:31:10.835Z,2.58
2023-04-27T03:33:38.237Z,2.62
2023-04-27T03:36:06.827Z,2.53
2023-04-27T03:38:34.431Z,2.50
2023-04-27T03:41:01.377Z,2.45
2023-04-27T03:43:28.163Z,2.52
2023-04-27T03:45:55.001Z,2.53
2023-04-27T03:48:22.620Z,2.49
2023-04-27T03:50:51.683Z,2.55
2023-04-27T03:53:18.583Z,2.52
2023-04-27T03:55:45.582Z,2.53
2023-04-27T03:58:12.536Z,2.53
2023-04-27T04:00:52.289Z,2.51
2023-04-27T04:03:19.241Z,2.52
2023-04-27T04:05:47.420Z,2.62
2023-04-27T04:08:14.683Z,2.63
2023-04-27T04:10:41.501Z,2.53
2023-04-27T04:13:09.892Z,2.56
2023-04-27T04:15:37.279Z,2.45
2023-04-27T04:18:04.163Z,2.57
2023-04-27T04:20:31.036Z,2.41
2023-04-27T04:22:57.792Z,2.44
2023-04-27T04:25:26.260Z,2.53
2023-04-27T04:27:53.613Z,2.60
2023-04-27T04:30:21.259Z,2.55
2023-04-27T04:32:48.185Z,2.53
2023-04-27T04:35:17.794Z,2.53
2023-04-27T04:37:44.667Z,2.40
2023-04-27T04:40:12.816Z,2.66
2023-04-27T04:42:42.214Z,2.45
2023-04-27T04:45:10.611Z,2.66
2023-04-27T04:47:40.174Z,2.64
2023-04-27T04:50:09.482Z,2.90
2023-04-27T04:52:37.516Z,3.24
2023-04-27T04:55:05.322Z,3.41
2023-04-27T04:57:32.259Z,3.62
2023-04-27T04:59:59.186Z,3.70
2023-04-27T05:02:26.121Z,3.86
2023-04-27T05:04:53.416Z,3.91
2023-04-27T05:07:24.902Z,4.05
2023-04-27T05:09:55.800Z,3.91
2023-04-27T05:12:22.595Z,3.90
2023-04-27T05:14:49.423Z,3.86
2023-04-27T05:17:16.321Z,4.00
2023-04-27T05:19:43.497Z,4.20
2023-04-27T05:22:12.975Z,4.42
2023-04-27T05:24:47.170Z,4.24
2023-04-27T05:27:19.011Z,4.55
2023-04-27T05:29:47.500Z,4.86
2023-04-27T05:32:16.694Z,4.77
2023-04-27T05:34:46.712Z,4.99
2023-04-27T05:37:19.762Z,4.68
2023-04-27T05:39:48.805Z,4.76
2023-04-27T05:42:15.805Z,4.99
2023-04-27T05:44:50.312Z,5.01
2023-04-27T05:47:22.449Z,5.07
2023-04-27T05:49:53.116Z,5.10
2023-04-27T05:52:30.396Z,5.24
2023-04-27T05:55:06.328Z,5.66
2023-04-27T06:02:00.739Z,5.42
2023-04-27T06:04:35.303Z,6.03
2023-04-27T06:07:10.330Z,6.30
2023-04-27T06:09:37.950Z,5.56
2023-04-27T06:12:09.725Z,5.15
2023-04-27T06:14:39.283Z,5.78
2023-04-27T06:17:10.935Z,5.43
2023-04-27T06:19:40.841Z,5.90
2023-04-27T06:22:07.909Z,6.88
2023-04-27T06:24:37.656Z,6.20
2023-04-27T06:27:08.434Z,6.57
2023-04-27T06:34:14.548Z,7.58
2023-04-27T06:37:09.573Z,6.99
2023-04-27T06:39:38.455Z,6.72
2023-04-27T06:42:06.800Z,6.73
2023-04-27T06:44:37.787Z,7.96
2023-04-27T06:47:05.907Z,8.07
2023-04-27T06:49:33.215Z,7.53
2023-04-27T06:52:03.094Z,7.46
2023-04-27T06:54:29.918Z,7.10
2023-04-27T06:56:59.246Z,7.56
2023-04-27T06:59:37.372Z,7.42
2023-04-27T07:02:41.793Z,7.76
2023-04-27T07:05:33.884Z,7.95
2023-04-27T07:08:08.503Z,8.05
2023-04-27T07:10:36.495Z,7.76
2023-04-27T07:13:15.661Z,8.70
2023-04-27T07:15:42.812Z,8.31
2023-04-27T07:18:12.677Z,8.59
2023-04-27T07:20:48.781Z,7.81
2023-04-27T07:23:16.550Z,8.02
2023-04-27T07:25:45.483Z,8.00
2023-04-27T07:28:13.324Z,8.67
2023-04-27T07:30:41.011Z,8.21
2023-04-27T07:33:10.327Z,8.47
2023-04-27T07:35:41.308Z,8.50
2023-04-27T07:38:11.564Z,8.97
2023-04-27T07:40:44.776Z,9.01
2023-04-27T07:43:12.049Z,9.35
2023-04-27T07:45:41.846Z,8.23
2023-04-27T07:48:24.992Z,9.88
2023-04-27T07:50:52.166Z,9.23
2023-04-27T07:53:22.096Z,10.17
2023-04-27T07:55:49.044Z,10.55
2023-04-27T07:58:19.354Z,10.08
2023-04-27T08:00:46.912Z,10.86
2023-04-27T08:03:32.919Z,11.40
2023-04-27T08:06:10.477Z,11.90
2023-04-27T08:08:40.337Z,12.14
2023-04-27T08:11:13.911Z,12.55
2023-04-27T08:13:41.002Z,11.62
2023-04-27T08:16:08.018Z,12.63
2023-04-27T08:18:35.011Z,12.93
2023-04-27T08:21:01.943Z,12.79
2023-04-27T08:23:29.917Z,14.18
2023-04-27T08:25:56.890Z,14.11
2023-04-27T08:28:24.152Z,14.26
2023-04-27T08:30:51.933Z,14.86
2023-04-27T08:33:18.725Z,14.20
2023-04-27T08:35:45.804Z,13.88
2023-04-27T08:38:12.828Z,15.59
2023-04-27T08:40:44.101Z,16.34
2023-04-27T08:43:11.541Z,16.22
2023-04-27T08:45:46.686Z,14.83
2023-04-27T08:48:13.834Z,15.40
2023-04-27T08:50:45.211Z,13.73
2023-04-27T08:53:22.389Z,14.13
2023-04-27T08:55:52.827Z,12.89
2023-04-27T08:59:09.715Z,13.61
2023-04-27T09:01:36.701Z,11.64
2023-04-27T09:04:03.999Z,13.69
2023-04-27T09:06:32.797Z,14.45
2023-04-27T09:09:00.680Z,15.56
2023-04-27T09:11:34.079Z,13.97
2023-04-27T09:14:03.627Z,14.92
2023-04-27T09:16:31.421Z,13.58
2023-04-27T09:18:59.214Z,13.64
2023-04-27T09:21:28.508Z,14.14
2023-04-27T09:23:58.859Z,13.31
2023-04-27T09:26:27.701Z,12.69
2023-04-27T09:28:59.365Z,12.62
2023-04-27T09:31:36.564Z,12.14
2023-04-27T09:35:06.562Z,12.19
2023-04-27T09:37:33.718Z,12.68
2023-04-27T09:40:02.601Z,13.04
2023-04-27T09:42:29.713Z,12.15
2023-04-27T09:44:57.266Z,12.48
2023-04-27T09:47:25.043Z,12.58
2023-04-27T09:49:52.377Z,12.62
2023-04-27T09:52:19.214Z,12.15
2023-04-27T09:54:47.023Z,12.96
2023-04-27T09:57:49.236Z,12.12
2023-04-27T10:00:43.552Z,12.26
2023-04-27T10:03:32.924Z,12.16
2023-04-27T10:06:09.008Z,11.97
2023-04-27T10:08:36.844Z,12.86
2023-04-27T10:11:33.930Z,12.01
2023-04-27T10:14:08.234Z,12.89
2023-04-27T10:16:50.975Z,12.42
2023-04-27T10:19:18.721Z,12.55
2023-04-27T10:22:12.169Z,12.36
2023-04-27T10:24:44.449Z,12.72
2023-04-27T10:27:16.328Z,12.28
2023-04-27T10:29:45.121Z,12.60
2023-04-27T10:32:14.327Z,12.35
2023-04-27T10:34:45.426Z,12.54
2023-04-27T10:37:12.511Z,12.54
2023-04-27T10:39:48.489Z,12.58
2023-04-27T10:42:28.471Z,12.06
2023-04-27T10:44:59.152Z,11.82
2023-04-27T10:47:48.252Z,11.75
2023-04-27T10:50:15.971Z,11.60
2023-04-27T10:53:33.327Z,11.43
2023-04-27T10:56:00.094Z,11.49
2023-04-27T10:58:34.671Z,11.48
2023-04-27T11:01:12.686Z,11.31
2023-04-27T11:03:39.727Z,10.81
2023-04-27T11:06:06.898Z,11.59
2023-04-27T11:08:36.879Z,11.55
2023-04-27T11:11:06.815Z,11.76
2023-04-27T11:13:34.097Z,11.94
2023-04-27T11:16:26.024Z,12.36
2023-04-27T11:18:52.848Z,12.58
2023-04-27T11:21:23.496Z,12.10
2023-04-27T11:23:50.603Z,12.46
2023-04-27T11:26:22.048Z,12.51
2023-04-27T11:29:05.488Z,12.32
2023-04-27T11:35:57.623Z,12.50
2023-04-27T11:38:24.771Z,12.20
2023-04-27T11:41:06.088Z,12.51
2023-04-27T11:43:34.027Z,13.12
2023-04-27T11:46:06.205Z,13.28
2023-04-27T11:48:37.620Z,13.62
2023-04-27T11:51:06.912Z,13.18
2023-04-27T11:53:39.436Z,13.32
2023-04-27T11:56:11.138Z,12.92
2023-04-27T11:58:40.991Z,13.23
2023-04-27T12:01:12.980Z,13.18
2023-04-27T12:03:41.614Z,12.63
2023-04-27T12:06:27.686Z,13.42
2023-04-27T12:08:57.135Z,13.31
2023-04-27T12:11:30.340Z,12.80
2023-04-27T12:13:57.507Z,12.71
2023-04-27T12:16:24.761Z,11.98
2023-04-27T12:18:51.937Z,12.64
2023-04-27T12:21:19.131Z,13.02
2023-04-27T12:23:46.140Z,12.49
2023-04-27T12:26:15.236Z,11.21
2023-04-27T12:28:42.460Z,11.98
2023-04-27T12:31:13.520Z,12.37
2023-04-27T12:33:40.707Z,12.32
2023-04-27T12:36:07.642Z,12.62
2023-04-27T12:39:04.775Z,12.61
2023-04-27T12:41:31.732Z,12.04
2023-04-27T12:43:58.570Z,12.53
2023-04-27T12:46:28.080Z,12.33
2023-04-27T12:48:57.061Z,12.66
2023-04-27T12:51:24.277Z,12.14
2023-04-27T12:53:51.322Z,12.34
2023-04-27T12:56:18.237Z,12.46
2023-04-27T12:58:45.704Z,12.55
2023-04-27T13:01:15.079Z,13.15
2023-04-27T13:03:42.998Z,12.96
2023-04-27T13:06:10.722Z,12.67
2023-04-27T13:08:37.931Z,12.69
2023-04-27T13:11:04.962Z,12.53
2023-04-27T13:13:32.007Z,12.50
2023-04-27T13:15:58.952Z,12.77
2023-04-27T13:18:26.433Z,12.54
2023-04-27T13:20:53.506Z,12.59
2023-04-27T13:23:20.293Z,12.58
2023-04-27T13:25:47.056Z,12.71
2023-04-27T13:28:13.783Z,12.69
2023-04-27T13:30:40.832Z,12.63
2023-04-27T13:33:22.048Z,12.18
2023-04-27T13:35:50.990Z,12.73
2023-04-27T13:38:17.790Z,12.61
2023-04-27T13:40:44.920Z,12.10
2023-04-27T13:43:11.889Z,12.15
2023-04-27T13:45:39.942Z,12.54
2023-04-27T13:48:07.118Z,12.49
2023-04-27T13:50:34.160Z,12.50
2023-04-27T13:53:01.952Z,12.05
2023-04-27T13:55:28.886Z,11.92
2023-04-27T13:57:55.694Z,12.29
2023-04-27T14:00:22.643Z,12.05
2023-04-27T14:02:51.492Z,12.33
2023-04-27T14:05:21.065Z,12.32
2023-04-27T14:07:49.085Z,12.58
2023-04-27T14:11:19.251Z,12.66
2023-04-27T14:13:46.369Z,12.57
2023-04-27T14:16:13.744Z,12.47
2023-04-27T14:18:40.533Z,12.80
2023-04-27T14:21:09.310Z,12.88
2023-04-27T14:23:36.620Z,12.99
2023-04-27T14:26:04.156Z,12.59
2023-04-27T14:28:31.183Z,12.38
2023-04-27T14:30:58.224Z,12.60
2023-04-27T14:33:25.496Z,12.72
2023-04-27T14:35:52.440Z,12.65
2023-04-27T14:38:19.386Z,12.66
2023-04-27T14:40:46.646Z,12.65
2023-04-27T14:43:13.645Z,12.93
2023-04-27T14:45:52.314Z,12.68
2023-04-27T14:48:29.554Z,12.83
2023-04-27T14:50:56.833Z,12.73
2023-04-27T14:53:25.882Z,12.93
2023-04-27T14:55:53.068Z,12.51
2023-04-27T14:58:24.605Z,13.02
2023-04-27T15:00:58.454Z,13.15
2023-04-27T15:03:28.360Z,12.90
2023-04-27T15:05:57.564Z,13.14
2023-04-27T15:08:26.476Z,13.46
2023-04-27T15:10:58.055Z,13.46
2023-04-27T15:13:27.009Z,13.63
2023-04-27T15:16:00.921Z,13.39
2023-04-27T15:18:31.169Z,13.43
2023-04-27T15:20:59.359Z,13.20
2023-04-27T15:23:27.777Z,13.35
2023-04-27T15:25:58.273Z,13.64
2023-04-27T15:28:25.196Z,13.42
2023-04-27T15:30:52.207Z,12.99
2023-04-27T15:33:19.479Z,12.56
2023-04-27T15:35:46.469Z,13.10
2023-04-27T15:38:15.175Z,13.71
2023-04-27T15:40:42.513Z,13.75
2023-04-27T15:43:09.625Z,13.88
2023-04-27T15:45:36.654Z,13.25
2023-04-27T15:48:41.040Z,13.44
2023-04-27T15:51:10.251Z,13.38
2023-04-27T15:53:37.732Z,13.57
2023-04-27T15:56:04.809Z,13.33
2023-04-27T15:58:31.757Z,13.15
2023-04-27T16:01:00.135Z,13.09
2023-04-27T16:03:27.280Z,13.61
2023-04-27T16:05:54.437Z,13.84
2023-04-27T16:08:22.511Z,13.91
2023-04-27T16:10:51.473Z,13.61
2023-04-27T16:13:18.417Z,13.88
2023-04-27T16:15:45.464Z,13.49
2023-04-27T16:18:12.619Z,12.94
2023-04-27T16:20:39.573Z,12.28
2023-04-27T16:23:06.938Z,13.47
2023-04-27T16:25:33.973Z,13.81
2023-04-27T16:28:01.003Z,13.69
2023-04-27T16:30:28.021Z,13.36
2023-04-27T16:32:57.349Z,13.46
2023-04-27T16:39:26.602Z,13.56
2023-04-27T16:41:56.156Z,12.91
2023-04-27T16:44:31.948Z,13.31
2023-04-27T16:46:58.950Z,13.08
2023-04-27T16:49:28.186Z,12.77
2023-04-27T16:51:56.374Z,13.07
2023-04-27T16:54:25.611Z,13.31
2023-04-27T16:56:54.600Z,13.03
2023-04-27T16:59:22.594Z,12.90
2023-04-27T17:01:49.588Z,12.66
2023-04-27T17:04:19.920Z,12.86
2023-04-27T17:06:49.538Z,12.50
2023-04-27T17:09:16.888Z,12.54
2023-04-27T17:11:43.917Z,12.14
2023-04-27T17:14:10.901Z,12.43
2023-04-27T17:16:39.703Z,12.51
2023-04-27T17:19:14.447Z,12.62
2023-04-27T17:21:44.348Z,12.66
2023-04-27T17:24:14.215Z,12.60
2023-04-27T17:26:46.555Z,12.32
2023-04-27T17:29:33.147Z,12.18
2023-04-27T17:32:15.220Z,11.71
2023-04-27T17:34:43.059Z,11.65
2023-04-27T17:37:12.741Z,11.49
2023-04-27T17:39:40.065Z,11.49
2023-04-27T17:42:12.392Z,11.59
2023-04-27T17:44:41.581Z,10.61
2023-04-27T17:47:09.183Z,10.74
2023-04-27T17:49:41.036Z,10.81
2023-04-27T17:52:29.537Z,9.89
2023-04-27T17:54:57.930Z,10.07
2023-04-27T17:57:27.841Z,10.02
2023-04-27T18:00:00.953Z,9.62
2023-04-27T18:02:31.561Z,9.77
2023-04-27T18:04:58.817Z,9.28
2023-04-27T18:07:47.536Z,9.18
2023-04-27T18:10:16.970Z,9.03
2023-04-27T18:12:52.858Z,8.47
2023-04-27T18:15:20.452Z,8.89
2023-04-27T18:17:47.535Z,8.48
2023-04-27T18:20:16.618Z,8.36
2023-04-27T18:22:43.719Z,8.72
2023-04-27T18:25:10.989Z,8.71
2023-04-27T18:27:38.302Z,8.71
2023-04-27T18:30:13.021Z,8.73
2023-04-27T18:32:39.962Z,8.57
2023-04-27T18:35:12.013Z,8.03
2023-04-27T18:37:39.760Z,8.20
2023-04-27T18:40:09.361Z,7.79
2023-04-27T18:42:36.527Z,7.63
2023-04-27T18:45:03.781Z,7.73
2023-04-27T18:47:49.683Z,7.91
2023-04-27T18:50:24.113Z,7.42
2023-04-27T18:52:52.625Z,7.53
2023-04-27T18:55:19.677Z,7.70
2023-04-27T18:57:48.121Z,7.68
2023-04-27T19:00:23.033Z,7.82
2023-04-27T19:02:54.945Z,7.77
2023-04-27T19:05:26.984Z,7.91
2023-04-27T19:07:54.865Z,8.02
2023-04-27T19:10:22.006Z,8.09
2023-04-27T19:13:00.910Z,8.11
2023-04-27T19:15:34.609Z,8.07
2023-04-27T19:18:10.871Z,8.05
2023-04-27T19:20:39.465Z,7.76
2023-04-27T19:23:09.551Z,7.97
2023-04-27T19:25:43.027Z,8.04
2023-04-27T19:28:20.853Z,7.87
2023-04-27T19:30:50.863Z,7.90
2023-04-27T19:33:20.445Z,7.79
2023-04-27T19:35:53.274Z,7.76
2023-04-27T19:38:30.638Z,7.82
2023-04-27T19:41:02.014Z,7.86
2023-04-27T19:43:38.961Z,7.83
2023-04-27T19:46:11.133Z,7.63
2023-04-27T19:48:39.160Z,7.41
2023-04-27T19:51:10.173Z,7.28
2023-04-27T19:53:38.182Z,7.30
2023-04-27T19:56:05.142Z,6.87
2023-04-27T19:58:34.622Z,7.13
2023-04-27T20:01:02.093Z,7.08
2023-04-27T20:03:31.351Z,6.99
2023-04-27T20:06:10.605Z,7.16
2023-04-27T20:08:43.281Z,7.01
2023-04-27T20:11:10.267Z,6.97
2023-04-27T20:13:39.719Z,7.07
2023-04-27T20:16:09.242Z,7.05
2023-04-27T20:18:36.461Z,6.90
2023-04-27T20:21:05.881Z,7.01
2023-04-27T20:23:35.012Z,7.07
2023-04-27T20:26:01.980Z,7.01
2023-04-27T20:28:30.390Z,7.13
2023-04-27T20:30:57.743Z,7.09
2023-04-27T20:33:24.632Z,7.16
2023-04-27T20:35:55.560Z,7.17
2023-04-27T20:38:23.893Z,7.14
2023-04-27T20:40:53.539Z,7.14
2023-04-27T20:43:21.317Z,7.17
2023-04-27T20:45:48.305Z,7.20
2023-04-27T20:48:15.224Z,7.24
2023-04-27T20:50:42.820Z,7.23
2023-04-27T20:53:09.801Z,7.16
2023-04-27T20:55:37.093Z,7.15
2023-04-27T20:58:03.928Z,7.16
2023-04-27T21:00:30.955Z,7.20
2023-04-27T21:02:57.883Z,7.16
2023-04-27T21:05:25.961Z,7.17
2023-04-27T21:07:54.078Z,7.16
2023-04-27T21:10:21.296Z,7.20
2023-04-27T21:12:48.250Z,7.07
2023-04-27T21:15:15.104Z,7.08
2023-04-27T21:17:41.963Z,7.12
2023-04-27T21:20:09.949Z,7.15
2023-04-27T21:22:37.525Z,7.15
2023-04-27T21:25:04.775Z,7.16
2023-04-27T21:27:32.751Z,7.18
2023-04-27T21:30:02.447Z,7.17
2023-04-27T21:32:29.217Z,7.14
2023-04-27T21:34:56.611Z,7.17
2023-04-27T21:37:24.445Z,7.10
2023-04-27T21:39:51.199Z,7.15
2023-04-27T21:42:18.263Z,7.17
2023-04-27T21:44:45.093Z,6.86
2023-04-27T21:47:12.435Z,7.05
2023-04-27T21:49:39.606Z,7.11
2023-04-27T21:52:06.381Z,7.12
2023-04-27T21:54:33.408Z,7.21
2023-04-27T21:57:01.198Z,7.23
2023-04-27T21:59:28.144Z,7.17
2023-04-27T22:01:59.432Z,7.15
2023-04-27T22:04:26.579Z,7.22
2023-04-27T22:06:53.517Z,7.22
2023-04-27T22:09:22.991Z,7.18
2023-04-27T22:11:52.561Z,7.15
2023-04-27T22:14:19.496Z,7.18
2023-04-27T22:16:46.682Z,7.19
2023-04-27T22:19:13.561Z,7.24
2023-04-27T22:21:40.391Z,7.13
2023-04-27T22:24:07.313Z,7.20
2023-04-27T22:26:34.060Z,7.26
2023-04-27T22:29:00.946Z,7.26
2023-04-27T22:31:27.880Z,7.24
2023-04-27T22:33:54.810Z,7.27
2023-04-27T22:36:23.090Z,7.29
2023-04-27T22:38:52.391Z,7.27
2023-04-27T22:41:47.476Z,7.27
2023-04-27T22:44:14.571Z,7.20
2023-04-27T22:46:43.802Z,7.25
2023-04-27T22:49:10.768Z,7.30
2023-04-27T22:51:38.932Z,7.34
2023-04-27T22:54:06.210Z,7.29
2023-04-27T22:56:33.290Z,7.26
2023-04-27T22:59:00.241Z,7.29
2023-04-27T23:01:27.101Z,7.31
2023-04-27T23:03:54.457Z,7.34
2023-04-27T23:06:22.217Z,7.38
2023-04-27T23:08:49.031Z,7.30
2023-04-27T23:11:18.926Z,7.38
2023-04-27T23:13:48.266Z,7.33
2023-04-27T23:16:15.773Z,7.29
2023-04-27T23:18:42.708Z,7.27
2023-04-27T23:21:11.395Z,7.23
2023-04-27T23:23:38.368Z,7.15
2023-04-27T23:26:13.108Z,7.20
2023-04-27T23:28:40.209Z,7.18
2023-04-27T23:31:07.525Z,7.22
2023-04-27T23:33:34.847Z,7.20
2023-04-27T23:36:02.211Z,7.22
2023-04-27T23:38:29.151Z,7.28
2023-04-27T23:40:55.999Z,7.33
2023-04-27T23:43:23.044Z,7.36
2023-04-27T23:45:53.866Z,7.32
2023-04-27T23:48:20.757Z,7.28
2023-04-27T23:50:47.568Z,7.33
2023-04-27T23:53:14.503Z,7.29
2023-04-27T23:55:41.443Z,7.31
2023-04-27T23:58:08.325Z,7.37
